Time;durP1;ratioP1;P1;durP2;ratioP2;P2;SDS_P1;SDS_P2;PMS_P1;PMS_P2;Temp;Humidity;BMP_temperature;BMP_pressure;BME280_temperature;BME280_humidity;BME280_pressure;Samples;Min_cycle;Max_cycle;Signal;HPM_P1;HPM_P2
2021/09/30 00:01:19;;;;;;;2.50;1.17;;;11.60;99.90;;;;;;6131282;23;20423;-89
2021/09/30 00:03:57;;;;;;;1.80;1.13;;;11.60;99.90;;;;;;6135541;23;20412;-88
2021/09/30 00:06:26;;;;;;;2.67;1.00;;;11.50;99.90;;;;;;6133448;23;20442;-87
2021/09/30 00:09:06;;;;;;;2.13;1.10;;;11.40;99.90;;;;;;6143941;23;20465;-89
2021/09/30 00:11:46;;;;;;;2.30;1.30;;;11.50;99.90;;;;;;6140303;23;20483;-88
2021/09/30 00:14:23;;;;;;;2.93;1.40;;;11.40;99.90;;;;;;6133221;23;20428;-89
2021/09/30 00:17:18;;;;;;;4.10;2.10;;;11.40;99.90;;;;;;6151041;23;20423;-87
2021/09/30 00:34:18;;;;;;;3.13;1.00;;;11.10;99.90;;;;;;6088008;23;20432;-88
2021/09/30 00:39:47;;;;;;;2.40;1.40;;;11.10;99.90;;;;;;6151659;23;20428;-87
2021/09/30 00:42:24;;;;;;;3.83;1.20;;;11.10;99.90;;;;;;6151878;23;20400;-88
2021/09/30 00:47:46;;;;;;;2.33;1.10;;;11.10;99.90;;;;;;6140539;23;20800;-89
2021/09/30 02:27:11;;;;;;;4.07;1.70;;;10.20;99.90;;;;;;6127879;23;20414;-88
2021/09/30 02:29:46;;;;;;;3.10;1.20;;;10.10;99.90;;;;;;6128552;23;20431;-88
2021/09/30 03:00:29;;;;;;;2.90;1.47;;;10.40;99.90;;;;;;6126523;23;20372;-89
2021/09/30 03:03:00;;;;;;;2.33;1.43;;;10.40;99.90;;;;;;6126262;23;20415;-88
2021/09/30 03:05:27;;;;;;;4.77;1.50;;;10.40;99.90;;;;;;6126421;23;20411;-88
2021/09/30 03:07:57;;;;;;;4.10;1.93;;;10.40;99.90;;;;;;6126237;23;20420;-88
2021/09/30 03:10:25;;;;;;;4.07;1.77;;;10.50;99.90;;;;;;6126560;23;20901;-88
2021/09/30 03:12:55;;;;;;;3.43;1.80;;;10.50;99.90;;;;;;6136032;23;20410;-88
2021/09/30 03:15:30;;;;;;;3.77;2.20;;;10.40;99.90;;;;;;6129047;23;20431;-88
2021/09/30 03:18:13;;;;;;;3.40;2.30;;;10.30;99.90;;;;;;6126837;23;20421;-88
2021/09/30 03:20:46;;;;;;;4.90;2.27;;;10.20;99.90;;;;;;6132202;23;20424;-87
2021/09/30 03:23:15;;;;;;;3.80;2.90;;;10.10;99.90;;;;;;6133942;23;20424;-88
2021/09/30 03:25:46;;;;;;;5.50;4.30;;;10.10;99.90;;;;;;6128535;23;20406;-89
2021/09/30 03:28:14;;;;;;;5.17;3.30;;;10.00;99.90;;;;;;6134602;23;20466;-88
2021/09/30 03:30:42;;;;;;;3.80;2.73;;;10.00;99.90;;;;;;6126515;23;20412;-88
2021/09/30 03:33:10;;;;;;;11.00;3.10;;;9.90;99.90;;;;;;6126537;23;20956;-89
2021/09/30 03:35:38;;;;;;;9.20;3.53;;;9.90;99.90;;;;;;6149694;23;20423;-87
2021/09/30 03:38:07;;;;;;;5.60;3.97;;;9.80;99.90;;;;;;6152131;23;20431;-87
2021/09/30 03:40:36;;;;;;;8.73;3.63;;;9.80;99.90;;;;;;6150363;23;20420;-87
2021/09/30 03:43:04;;;;;;;7.33;4.03;;;9.80;99.90;;;;;;6129769;23;21038;-88
2021/09/30 03:45:31;;;;;;;7.00;4.27;;;9.80;99.90;;;;;;6127706;23;20420;-89
2021/09/30 03:48:03;;;;;;;8.00;5.70;;;9.70;99.90;;;;;;6142787;23;20765;-87
2021/09/30 03:50:50;;;;;;;5.17;3.80;;;9.80;99.90;;;;;;6127926;23;20879;-89
2021/09/30 03:53:25;;;;;;;6.07;3.50;;;9.80;99.90;;;;;;6127129;23;20397;-89
2021/09/30 03:56:08;;;;;;;8.47;4.17;;;9.80;99.90;;;;;;6130972;23;20442;-88
2021/09/30 04:01:29;;;;;;;4.83;3.50;;;9.80;99.90;;;;;;6128637;23;20371;-89
2021/09/30 04:04:01;;;;;;;6.80;4.50;;;9.80;99.90;;;;;;6125651;23;20419;-90
2021/09/30 04:06:28;;;;;;;6.47;3.23;;;9.60;99.90;;;;;;6124946;23;20802;-89
2021/09/30 04:08:57;;;;;;;7.80;3.40;;;9.60;99.90;;;;;;6125675;23;20973;-89
2021/09/30 04:11:27;;;;;;;5.93;3.80;;;9.60;99.90;;;;;;6128188;23;20416;-88
2021/09/30 04:13:59;;;;;;;4.37;3.27;;;9.60;99.90;;;;;;6146412;23;20408;-89
2021/09/30 04:16:30;;;;;;;6.00;3.23;;;9.60;99.90;;;;;;6153533;23;20423;-88
2021/09/30 04:18:59;;;;;;;9.90;3.87;;;9.70;99.90;;;;;;6150843;23;20480;-88
2021/09/30 04:21:26;;;;;;;4.83;3.00;;;9.60;99.90;;;;;;6150500;23;20402;-88
2021/09/30 04:23:55;;;;;;;11.13;3.17;;;9.60;99.90;;;;;;6152541;23;20388;-88
2021/09/30 04:26:30;;;;;;;5.87;2.70;;;9.60;99.90;;;;;;6154329;23;20396;-88
2021/09/30 04:28:58;;;;;;;8.30;3.43;;;9.60;99.90;;;;;;6152066;23;20458;-88
2021/09/30 04:31:38;;;;;;;3.60;3.30;;;9.50;99.90;;;;;;6146418;23;20446;-89
2021/09/30 04:34:05;;;;;;;5.80;3.00;;;9.60;99.90;;;;;;6134823;23;20423;-88
2021/09/30 04:36:46;;;;;;;9.10;3.70;;;9.60;99.90;;;;;;6133251;23;20431;-86
2021/09/30 04:39:16;;;;;;;8.17;3.80;;;9.60;99.90;;;;;;6133632;23;20447;-87
2021/09/30 04:41:50;;;;;;;5.70;2.70;;;9.50;99.90;;;;;;6131121;23;20430;-88
2021/09/30 04:44:22;;;;;;;6.60;4.23;;;9.60;99.90;;;;;;6131912;23;20878;-87
2021/09/30 04:47:05;;;;;;;10.83;3.93;;;9.50;99.90;;;;;;6134765;23;20396;-87
2021/09/30 04:49:44;;;;;;;6.80;3.50;;;9.50;99.90;;;;;;6146402;23;20434;-87
2021/09/30 04:52:16;;;;;;;7.33;3.70;;;9.40;99.90;;;;;;6147962;23;20535;-87
2021/09/30 04:54:50;;;;;;;15.93;4.67;;;9.50;99.90;;;;;;6151433;23;20491;-86
2021/09/30 04:57:30;;;;;;;9.80;5.10;;;9.50;99.90;;;;;;6140435;23;20436;-87
2021/09/30 05:00:09;;;;;;;10.90;4.07;;;9.50;99.90;;;;;;6143158;23;20474;-86
2021/09/30 05:02:46;;;;;;;6.80;4.43;;;9.40;99.90;;;;;;6151632;23;20475;-88
2021/09/30 05:05:25;;;;;;;5.10;3.10;;;9.40;99.90;;;;;;6147885;23;20766;-89
2021/09/30 05:07:59;;;;;;;9.07;4.53;;;9.40;99.90;;;;;;6136368;23;20431;-88
2021/09/30 05:10:33;;;;;;;4.20;3.43;;;9.40;99.90;;;;;;6137241;23;20443;-87
2021/09/30 05:13:05;;;;;;;4.40;3.97;;;9.40;99.90;;;;;;6142408;23;20408;-88
2021/09/30 05:15:37;;;;;;;4.73;3.33;;;9.50;99.90;;;;;;6135584;23;20431;-88
2021/09/30 05:18:04;;;;;;;4.17;3.00;;;9.40;99.90;;;;;;6147966;23;21061;-84
2021/09/30 05:20:31;;;;;;;8.50;4.13;;;9.40;99.90;;;;;;6151724;23;20459;-84
2021/09/30 05:22:57;;;;;;;6.57;3.83;;;9.40;99.90;;;;;;6143613;23;20391;-85
2021/09/30 05:25:25;;;;;;;7.37;3.80;;;9.40;99.90;;;;;;6150857;23;20414;-84
2021/09/30 05:27:52;;;;;;;8.93;3.37;;;9.40;99.90;;;;;;6148034;23;20938;-87
2021/09/30 05:30:21;;;;;;;3.70;3.10;;;9.30;99.90;;;;;;6137655;23;20466;-86
2021/09/30 05:32:48;;;;;;;5.70;3.23;;;9.40;99.90;;;;;;6139939;23;20424;-85
2021/09/30 05:35:15;;;;;;;7.10;3.77;;;9.40;99.90;;;;;;6138789;23;20443;-84
2021/09/30 05:37:42;;;;;;;6.37;4.00;;;9.40;99.90;;;;;;6139192;23;20440;-86
2021/09/30 05:40:14;;;;;;;8.47;4.67;;;9.40;99.90;;;;;;6135957;23;20384;-86
2021/09/30 05:42:41;;;;;;;7.87;3.80;;;9.50;99.90;;;;;;6138329;23;20396;-86
2021/09/30 05:45:10;;;;;;;6.37;3.50;;;9.40;99.90;;;;;;6137103;23;20460;-85
2021/09/30 05:47:38;;;;;;;3.43;2.30;;;9.40;99.90;;;;;;6142002;23;20420;-84
2021/09/30 05:50:07;;;;;;;7.33;2.60;;;9.40;99.90;;;;;;6151414;23;20404;-88
2021/09/30 05:52:34;;;;;;;3.93;3.13;;;9.40;99.90;;;;;;6145628;23;20412;-88
2021/09/30 05:55:00;;;;;;;6.30;2.53;;;9.40;99.90;;;;;;6131054;23;20929;-89
2021/09/30 05:57:29;;;;;;;5.00;2.60;;;9.40;99.90;;;;;;6129027;23;20434;-88
2021/09/30 06:00:10;;;;;;;11.10;3.20;;;9.40;99.90;;;;;;6126714;23;20867;-89
2021/09/30 06:10:52;;;;;;;9.20;2.97;;;9.50;99.90;;;;;;6137153;23;20874;-88
2021/09/30 06:13:40;;;;;;;4.87;3.40;;;9.50;99.90;;;;;;6131004;23;20883;-89
2021/09/30 06:22:04;;;;;;;5.73;2.90;;;9.60;99.90;;;;;;6128505;23;20423;-89
2021/09/30 06:25:07;;;;;;;6.23;2.70;;;9.60;99.90;;;;;;6133975;23;20384;-89
2021/09/30 06:34:45;;;;;;;8.67;4.60;;;9.70;99.90;;;;;;6106065;23;20419;-88
2021/09/30 06:37:42;;;;;;;6.80;4.83;;;9.80;99.90;;;;;;6117845;23;20470;-88
2021/09/30 06:40:17;;;;;;;7.03;4.00;;;9.90;99.90;;;;;;6150836;23;20391;-90
2021/09/30 06:42:55;;;;;;;5.27;4.40;;;10.00;99.90;;;;;;6138555;23;20432;-89
2021/09/30 06:45:52;;;;;;;10.07;5.47;;;10.00;99.90;;;;;;6145085;23;20402;-88
2021/09/30 06:48:43;;;;;;;6.83;4.70;;;10.10;99.90;;;;;;6138598;23;20431;-88
2021/09/30 06:51:35;;;;;;;8.40;4.60;;;10.20;99.90;;;;;;6130604;23;20503;-88
2021/09/30 06:54:09;;;;;;;7.23;4.50;;;10.30;99.90;;;;;;6130132;23;20380;-88
2021/09/30 07:00:09;;;;;;;10.27;4.57;;;10.40;99.90;;;;;;6133409;23;20419;-87
2021/09/30 07:02:49;;;;;;;6.10;3.87;;;10.40;99.90;;;;;;6150984;23;20473;-88
2021/09/30 07:05:31;;;;;;;5.53;3.77;;;10.50;99.90;;;;;;6136179;23;20479;-89
2021/09/30 07:08:51;;;;;;;10.13;4.80;;;10.60;99.90;;;;;;6132512;23;20445;-89
2021/09/30 07:11:31;;;;;;;7.90;3.70;;;10.60;99.90;;;;;;6132046;23;20416;-89
2021/09/30 07:17:19;;;;;;;7.20;3.90;;;10.80;99.90;;;;;;6137123;23;20447;-88
2021/09/30 07:20:00;;;;;;;11.17;4.63;;;10.90;99.90;;;;;;6150400;23;20871;-88
2021/09/30 07:25:59;;;;;;;4.00;3.50;;;11.10;99.90;;;;;;6072888;23;20452;-88
2021/09/30 07:31:33;;;;;;;5.30;3.63;;;11.20;99.90;;;;;;6139907;23;20422;-88
2021/09/30 07:34:11;;;;;;;5.63;2.33;;;11.50;99.90;;;;;;6129605;23;20419;-88
2021/09/30 07:37:00;;;;;;;4.80;2.57;;;11.70;99.90;;;;;;6134573;23;20501;-88
2021/09/30 07:40:06;;;;;;;3.33;1.77;;;11.80;99.90;;;;;;6136407;23;20404;-87
2021/09/30 07:46:30;;;;;;;4.93;2.60;;;11.90;99.90;;;;;;6145414;23;20396;-88
2021/09/30 07:52:09;;;;;;;5.40;2.23;;;12.20;99.90;;;;;;6117535;23;20467;-89
2021/09/30 07:58:10;;;;;;;5.50;2.17;;;12.40;99.90;;;;;;6057505;23;20438;-89
2021/09/30 08:00:38;;;;;;;5.87;2.17;;;12.50;99.90;;;;;;6037436;23;20554;-89
2021/09/30 08:03:14;;;;;;;4.60;1.90;;;12.60;99.90;;;;;;6043129;23;20406;-89
2021/09/30 08:05:45;;;;;;;4.60;1.87;;;12.90;99.90;;;;;;6058348;23;20430;-89
2021/09/30 08:10:58;;;;;;;6.90;2.70;;;13.50;99.90;;;;;;6051897;23;20458;-84
2021/09/30 08:13:26;;;;;;;8.23;2.10;;;13.80;99.90;;;;;;6127078;23;20421;-86
2021/09/30 08:15:53;;;;;;;4.53;1.77;;;13.80;99.80;;;;;;6144655;23;20445;-84
2021/09/30 08:18:19;;;;;;;5.30;1.70;;;13.80;99.20;;;;;;6136266;23;20430;-83
2021/09/30 08:20:46;;;;;;;2.80;2.03;;;13.80;99.10;;;;;;6125728;23;20414;-85
2021/09/30 08:23:15;;;;;;;4.13;1.80;;;14.00;99.10;;;;;;6126542;23;20394;-85
2021/09/30 08:25:45;;;;;;;3.07;1.67;;;14.30;98.90;;;;;;6127076;23;20902;-84
2021/09/30 08:28:13;;;;;;;4.70;2.77;;;14.60;98.10;;;;;;6128222;23;20497;-83
2021/09/30 08:30:41;;;;;;;6.80;1.87;;;14.90;97.20;;;;;;6126224;23;20902;-83
2021/09/30 08:33:08;;;;;;;5.67;1.20;;;14.90;96.30;;;;;;6124374;23;20440;-83
2021/09/30 08:35:35;;;;;;;1.70;1.40;;;14.70;94.80;;;;;;6125907;23;20422;-83
2021/09/30 08:38:03;;;;;;;3.60;1.10;;;14.70;93.30;;;;;;6125102;23;20440;-83
2021/09/30 08:40:33;;;;;;;2.13;0.83;;;14.80;91.40;;;;;;6120368;23;20392;-84
2021/09/30 08:43:00;;;;;;;2.10;0.90;;;15.30;90.80;;;;;;6145963;23;20409;-84
2021/09/30 08:45:28;;;;;;;2.83;1.00;;;15.80;87.60;;;;;;6149144;23;20408;-84
2021/09/30 08:47:57;;;;;;;6.07;1.43;;;16.90;87.00;;;;;;6127640;23;20432;-85
2021/09/30 08:50:24;;;;;;;3.07;0.87;;;18.90;82.10;;;;;;6125490;23;20412;-85
2021/09/30 08:52:51;;;;;;;5.63;2.00;;;20.10;72.70;;;;;;6126707;23;20408;-85
2021/09/30 08:55:18;;;;;;;3.03;1.10;;;20.70;72.00;;;;;;6150063;23;20569;-84
2021/09/30 08:57:46;;;;;;;3.30;0.93;;;20.40;69.10;;;;;;6138938;23;20464;-86
2021/09/30 09:00:15;;;;;;;3.43;1.20;;;20.50;69.00;;;;;;6142774;23;20406;-85
2021/09/30 09:02:46;;;;;;;2.50;1.07;;;20.40;67.10;;;;;;6139530;23;20399;-86
2021/09/30 09:05:14;;;;;;;3.40;0.80;;;20.00;66.40;;;;;;6151303;23;20395;-84
2021/09/30 09:07:52;;;;;;;2.30;1.20;;;19.50;67.20;;;;;;6138556;23;20431;-85
2021/09/30 09:10:21;;;;;;;3.67;0.70;;;18.90;67.50;;;;;;6130440;23;20396;-85
2021/09/30 09:13:01;;;;;;;1.40;0.73;;;18.60;68.50;;;;;;6129057;23;20418;-84
2021/09/30 09:15:29;;;;;;;3.17;0.83;;;18.20;66.50;;;;;;6130298;23;20462;-83
2021/09/30 09:17:56;;;;;;;2.70;1.10;;;18.00;68.10;;;;;;6129447;23;20780;-86
2021/09/30 09:20:28;;;;;;;7.97;1.87;;;17.40;71.20;;;;;;6128053;23;20470;-82
2021/09/30 09:22:55;;;;;;;1.43;1.00;;;17.10;73.10;;;;;;6128713;23;20399;-82
2021/09/30 09:25:22;;;;;;;1.87;0.93;;;17.30;74.10;;;;;;6128650;23;20408;-82
2021/09/30 09:27:52;;;;;;;2.27;1.30;;;17.70;72.00;;;;;;6128581;23;20451;-83
2021/09/30 09:30:32;;;;;;;7.90;1.33;;;18.00;70.40;;;;;;6133660;23;20944;-84
2021/09/30 09:33:05;;;;;;;5.40;1.10;;;18.40;69.80;;;;;;6148188;23;20387;-84
2021/09/30 09:35:51;;;;;;;2.10;0.90;;;18.20;68.80;;;;;;6133277;23;20879;-84
2021/09/30 09:38:18;;;;;;;2.80;0.97;;;18.30;69.40;;;;;;6127949;23;20853;-84
2021/09/30 09:40:45;;;;;;;3.87;1.07;;;19.60;68.00;;;;;;6133095;23;20412;-85
2021/09/30 09:43:32;;;;;;;2.60;0.90;;;21.50;62.20;;;;;;6128864;23;20423;-85
2021/09/30 09:46:00;;;;;;;2.10;1.17;;;24.00;59.90;;;;;;6128552;23;20396;-85
2021/09/30 09:48:27;;;;;;;4.90;1.20;;;25.10;53.20;;;;;;6128355;23;20426;-83
2021/09/30 09:50:55;;;;;;;2.63;1.70;;;25.50;49.30;;;;;;6131493;23;20407;-80
2021/09/30 09:53:26;;;;;;;3.10;1.20;;;26.30;48.40;;;;;;6137574;23;20385;-83
2021/09/30 09:56:07;;;;;;;2.27;0.90;;;28.10;45.70;;;;;;6128479;23;20395;-84
2021/09/30 09:58:45;;;;;;;1.97;0.80;;;29.20;43.20;;;;;;6128568;23;20435;-84
2021/09/30 10:01:12;;;;;;;2.73;1.00;;;29.10;40.70;;;;;;6135315;23;20420;-82
2021/09/30 10:03:49;;;;;;;2.40;0.80;;;29.20;39.10;;;;;;6142251;23;20439;-82
2021/09/30 10:06:17;;;;;;;2.43;1.17;;;30.00;39.10;;;;;;6140370;23;20388;-83
2021/09/30 10:08:45;;;;;;;3.90;1.27;;;31.90;35.20;;;;;;6138875;23;20432;-84
2021/09/30 10:11:12;;;;;;;2.10;0.90;;;32.90;31.50;;;;;;6134523;23;20443;-84
2021/09/30 10:13:39;;;;;;;1.70;1.37;;;34.10;29.90;;;;;;6136295;23;20430;-82
2021/09/30 10:16:06;;;;;;;1.63;1.20;;;33.60;29.90;;;;;;6144976;23;20407;-82
2021/09/30 10:18:32;;;;;;;2.80;1.07;;;34.10;29.80;;;;;;6144924;23;20434;-84
2021/09/30 10:20:59;;;;;;;4.60;1.10;;;33.60;30.20;;;;;;6144907;23;20404;-83
2021/09/30 10:23:30;;;;;;;2.40;1.00;;;33.60;30.00;;;;;;6147342;23;20455;-82
2021/09/30 10:25:59;;;;;;;2.50;0.93;;;32.60;30.20;;;;;;6144311;23;20411;-85
2021/09/30 10:28:27;;;;;;;4.40;1.30;;;32.40;30.90;;;;;;6140437;23;20482;-84
2021/09/30 10:30:55;;;;;;;2.47;1.47;;;28.30;32.20;;;;;;6148682;23;20439;-81
2021/09/30 10:33:39;;;;;;;4.53;1.33;;;27.00;36.50;;;;;;6143617;23;20471;-84
2021/09/30 10:36:27;;;;;;;2.57;1.33;;;26.90;37.20;;;;;;6139550;23;20396;-82
2021/09/30 10:39:14;;;;;;;2.03;1.27;;;28.70;36.20;;;;;;6137099;23;20487;-84
2021/09/30 10:41:41;;;;;;;3.77;1.17;;;29.20;33.80;;;;;;6138342;23;20751;-84
2021/09/30 10:44:13;;;;;;;3.00;1.27;;;28.70;33.10;;;;;;6141477;23;20410;-83
2021/09/30 10:46:53;;;;;;;1.33;0.73;;;27.40;33.40;;;;;;6139789;23;20402;-83
2021/09/30 10:49:35;;;;;;;2.33;1.00;;;27.10;34.70;;;;;;6139492;23;20483;-83
2021/09/30 10:52:24;;;;;;;2.40;1.20;;;28.20;34.40;;;;;;6147179;23;20401;-83
2021/09/30 10:54:54;;;;;;;4.03;1.00;;;30.50;33.30;;;;;;6143226;23;20859;-83
2021/09/30 10:57:41;;;;;;;1.50;0.83;;;31.10;31.30;;;;;;6130811;23;20454;-83
2021/09/30 11:00:10;;;;;;;1.40;0.90;;;31.10;31.00;;;;;;6131498;23;20766;-83
2021/09/30 11:03:10;;;;;;;2.17;1.10;;;31.50;30.80;;;;;;6133634;23;20400;-83
2021/09/30 11:05:38;;;;;;;3.00;1.20;;;29.30;31.80;;;;;;6134764;23;20395;-83
2021/09/30 11:08:22;;;;;;;2.30;0.90;;;29.20;34.00;;;;;;6134726;23;20500;-83
2021/09/30 11:11:10;;;;;;;2.33;0.93;;;29.10;34.40;;;;;;6149736;23;20396;-83
2021/09/30 11:13:39;;;;;;;1.77;0.80;;;30.20;33.70;;;;;;6148454;23;20461;-83
2021/09/30 11:16:09;;;;;;;2.60;0.73;;;30.40;33.20;;;;;;6148082;23;20416;-84
2021/09/30 11:18:49;;;;;;;3.53;1.13;;;29.90;33.40;;;;;;6144352;23;20673;-84
2021/09/30 11:21:45;;;;;;;4.03;1.30;;;29.70;33.80;;;;;;6140834;23;20549;-83
2021/09/30 11:24:23;;;;;;;2.53;1.00;;;29.30;33.40;;;;;;6142500;23;20408;-83
2021/09/30 11:27:14;;;;;;;1.10;0.60;;;28.30;33.10;;;;;;6142156;23;20754;-84
2021/09/30 11:29:41;;;;;;;2.33;0.60;;;30.00;32.00;;;;;;6140200;23;20416;-84
2021/09/30 11:32:32;;;;;;;2.60;1.10;;;30.00;31.60;;;;;;6141658;23;20423;-80
2021/09/30 11:35:03;;;;;;;1.70;0.90;;;31.00;31.30;;;;;;6129088;23;20412;-85
2021/09/30 11:37:36;;;;;;;1.67;1.03;;;29.30;30.50;;;;;;6139973;23;20458;-84
2021/09/30 11:40:07;;;;;;;2.67;0.87;;;29.80;32.70;;;;;;6141561;23;20389;-82
2021/09/30 11:42:38;;;;;;;4.20;0.90;;;30.50;31.60;;;;;;6139781;23;20422;-86
2021/09/30 11:45:10;;;;;;;2.33;1.10;;;30.80;31.30;;;;;;6144383;23;20394;-83
2021/09/30 11:47:37;;;;;;;5.73;1.40;;;31.30;30.70;;;;;;6143751;23;20420;-83
2021/09/30 11:50:07;;;;;;;2.80;1.07;;;31.10;30.60;;;;;;6138464;23;20459;-84
2021/09/30 11:52:34;;;;;;;3.10;0.80;;;30.90;29.90;;;;;;6141735;23;20437;-83
2021/09/30 11:55:16;;;;;;;1.33;0.80;;;28.90;32.20;;;;;;6143252;23;20464;-86
2021/09/30 11:57:58;;;;;;;3.80;0.90;;;26.50;33.50;;;;;;6141867;23;20443;-88
2021/09/30 12:00:26;;;;;;;1.63;1.00;;;23.90;37.10;;;;;;6130732;23;20403;-88
2021/09/30 12:02:55;;;;;;;2.50;1.20;;;23.70;39.20;;;;;;6131980;23;20399;-89
2021/09/30 12:05:24;;;;;;;2.13;0.77;;;23.90;38.60;;;;;;6127805;23;20427;-90
2021/09/30 12:07:51;;;;;;;2.90;1.20;;;24.10;39.30;;;;;;6143365;23;20417;-88
2021/09/30 12:10:19;;;;;;;1.80;1.10;;;25.00;37.20;;;;;;6143363;23;20417;-91
2021/09/30 12:12:48;;;;;;;2.43;1.03;;;25.70;36.50;;;;;;6147412;23;20398;-91
2021/09/30 12:15:17;;;;;;;2.50;1.00;;;26.20;34.70;;;;;;6132697;23;20450;-88
2021/09/30 12:17:43;;;;;;;1.17;0.70;;;27.30;33.50;;;;;;6141980;23;20447;-87
2021/09/30 12:20:13;;;;;;;3.40;1.03;;;27.80;33.20;;;;;;6150699;23;20789;-87
2021/09/30 12:22:42;;;;;;;2.23;1.10;;;29.70;32.90;;;;;;6150510;23;20404;-88
2021/09/30 12:25:12;;;;;;;2.20;1.50;;;30.10;31.50;;;;;;6144239;23;20429;-88
2021/09/30 12:27:40;;;;;;;2.10;1.00;;;31.00;30.60;;;;;;6129736;23;20407;-88
2021/09/30 12:30:10;;;;;;;2.10;1.20;;;31.10;29.80;;;;;;6133941;23;20411;-88
2021/09/30 12:32:41;;;;;;;1.90;1.00;;;32.20;29.10;;;;;;6133437;23;20407;-89
2021/09/30 12:35:10;;;;;;;3.40;1.80;;;31.00;28.50;;;;;;6136116;23;20434;-88
2021/09/30 12:37:39;;;;;;;1.87;1.23;;;32.30;28.40;;;;;;6137297;23;20443;-89
2021/09/30 12:40:08;;;;;;;2.20;1.13;;;33.10;27.30;;;;;;6136525;23;20416;-88
2021/09/30 12:42:36;;;;;;;2.87;1.00;;;33.60;27.80;;;;;;6140543;23;20403;-89
2021/09/30 12:45:05;;;;;;;1.00;0.60;;;34.50;26.80;;;;;;6144965;23;20431;-88
2021/09/30 12:47:38;;;;;;;1.77;1.00;;;34.10;26.40;;;;;;6142290;23;20427;-90
2021/09/30 12:50:09;;;;;;;1.83;1.10;;;33.40;26.70;;;;;;6138307;23;20483;-90
2021/09/30 12:52:36;;;;;;;1.57;0.80;;;32.50;27.20;;;;;;6143756;23;20396;-91
2021/09/30 12:55:26;;;;;;;2.07;0.60;;;32.10;27.80;;;;;;6145485;23;20428;-88
2021/09/30 12:57:53;;;;;;;2.47;1.30;;;31.40;28.20;;;;;;6140778;23;20446;-89
2021/09/30 13:00:21;;;;;;;2.00;1.00;;;31.70;28.10;;;;;;6139979;23;20419;-88
2021/09/30 13:02:54;;;;;;;6.07;1.10;;;30.70;29.50;;;;;;6140693;23;20408;-89
2021/09/30 13:05:23;;;;;;;4.20;0.80;;;31.80;29.10;;;;;;6142580;23;20431;-88
2021/09/30 13:07:55;;;;;;;2.73;1.20;;;31.00;28.70;;;;;;6141474;23;20417;-87
2021/09/30 13:10:30;;;;;;;2.50;0.83;;;28.40;30.30;;;;;;6143792;23;20400;-88
2021/09/30 13:13:05;;;;;;;1.43;1.20;;;25.10;33.20;;;;;;6143192;23;20391;-88
2021/09/30 13:15:37;;;;;;;2.17;1.00;;;23.50;36.70;;;;;;6140580;23;20439;-88
2021/09/30 13:18:05;;;;;;;1.90;0.83;;;23.10;38.50;;;;;;6139154;23;20438;-88
2021/09/30 13:20:34;;;;;;;1.57;1.00;;;23.10;38.20;;;;;;6139411;23;20410;-89
2021/09/30 13:23:01;;;;;;;1.53;0.90;;;23.30;38.00;;;;;;6137429;23;20398;-87
2021/09/30 13:25:28;;;;;;;1.93;0.70;;;23.90;37.90;;;;;;6137571;23;20434;-89
2021/09/30 13:27:55;;;;;;;2.10;0.87;;;23.50;37.60;;;;;;6146788;23;20426;-87
2021/09/30 13:30:25;;;;;;;2.73;1.07;;;22.80;38.70;;;;;;6140218;23;20477;-90
2021/09/30 13:32:56;;;;;;;2.03;0.90;;;22.30;39.50;;;;;;6138604;23;20398;-89
2021/09/30 13:35:25;;;;;;;5.53;0.80;;;21.90;40.40;;;;;;6136541;23;20436;-90
2021/09/30 13:37:54;;;;;;;3.13;0.90;;;22.00;40.70;;;;;;6134743;23;20446;-88
2021/09/30 13:40:22;;;;;;;5.90;1.77;;;22.10;40.50;;;;;;6139055;23;20884;-88
2021/09/30 13:42:48;;;;;;;3.00;0.70;;;22.10;40.80;;;;;;6142541;23;20934;-88
2021/09/30 13:45:17;;;;;;;2.07;0.90;;;21.70;40.90;;;;;;6144220;23;20432;-90
2021/09/30 13:47:44;;;;;;;1.60;1.00;;;21.30;42.10;;;;;;6144213;23;20411;-90
2021/09/30 13:50:14;;;;;;;2.73;0.93;;;21.00;42.90;;;;;;6149491;23;20412;-88
2021/09/30 13:52:40;;;;;;;2.13;1.17;;;20.60;43.40;;;;;;6136259;23;20866;-90
2021/09/30 13:55:10;;;;;;;3.17;0.77;;;20.50;43.80;;;;;;6136851;23;20449;-89
2021/09/30 13:57:37;;;;;;;1.43;1.00;;;20.20;43.50;;;;;;6150822;23;20447;-88
2021/09/30 14:00:06;;;;;;;2.00;1.10;;;20.00;44.20;;;;;;6146149;23;20405;-88
2021/09/30 14:02:35;;;;;;;2.67;1.13;;;20.00;44.10;;;;;;6150308;23;20404;-88
2021/09/30 14:05:02;;;;;;;2.20;1.27;;;20.40;43.80;;;;;;6147500;23;20452;-89
2021/09/30 14:07:29;;;;;;;7.37;1.50;;;21.10;43.70;;;;;;6130796;23;20416;-90
2021/09/30 14:09:58;;;;;;;5.30;1.30;;;21.50;43.00;;;;;;6131455;23;20481;-89
2021/09/30 14:12:26;;;;;;;2.20;0.90;;;21.80;42.30;;;;;;6128294;23;20422;-89
2021/09/30 14:14:53;;;;;;;1.73;1.17;;;21.40;42.20;;;;;;6128443;23;20490;-90
2021/09/30 14:17:20;;;;;;;2.40;1.50;;;21.20;42.70;;;;;;6128844;23;20414;-90
2021/09/30 14:19:46;;;;;;;2.37;1.20;;;21.00;42.80;;;;;;6128296;23;20515;-90
2021/09/30 14:22:13;;;;;;;6.60;1.40;;;21.10;43.20;;;;;;6128714;23;20419;-89
2021/09/30 14:24:40;;;;;;;2.37;0.97;;;21.20;42.60;;;;;;6130205;23;20438;-88
2021/09/30 14:27:07;;;;;;;2.53;1.10;;;21.40;42.70;;;;;;6133148;23;20439;-89
2021/09/30 14:29:41;;;;;;;5.57;1.30;;;21.30;42.40;;;;;;6129325;23;20746;-90
2021/09/30 14:32:09;;;;;;;1.90;1.10;;;20.70;43.30;;;;;;6128816;23;20757;-90
2021/09/30 14:34:36;;;;;;;3.43;1.00;;;21.00;43.90;;;;;;6130409;23;20468;-89
2021/09/30 14:37:03;;;;;;;6.30;1.33;;;21.30;43.00;;;;;;6133997;23;20415;-90
2021/09/30 14:39:30;;;;;;;4.97;1.70;;;21.60;42.90;;;;;;6130703;23;20435;-90
2021/09/30 14:41:56;;;;;;;1.43;0.90;;;22.40;42.60;;;;;;6130972;23;20415;-88
2021/09/30 14:44:24;;;;;;;6.50;1.07;;;22.70;40.70;;;;;;6133667;23;20422;-89
2021/09/30 14:46:53;;;;;;;3.20;0.80;;;22.60;40.80;;;;;;6131014;23;20412;-90
2021/09/30 14:49:20;;;;;;;1.30;0.80;;;22.40;40.80;;;;;;6136925;23;20412;-89
2021/09/30 14:51:47;;;;;;;1.43;0.90;;;21.90;41.70;;;;;;6137116;23;20407;-90
2021/09/30 14:54:14;;;;;;;0.90;0.70;;;21.00;42.20;;;;;;6129363;23;20402;-89
2021/09/30 14:56:40;;;;;;;1.93;1.07;;;20.20;43.50;;;;;;6130174;23;20402;-89
2021/09/30 14:59:07;;;;;;;2.00;0.90;;;20.10;44.70;;;;;;6128984;23;20438;-89
2021/09/30 15:01:34;;;;;;;1.40;0.90;;;19.90;44.60;;;;;;6129404;23;20398;-89
2021/09/30 15:04:02;;;;;;;1.90;0.77;;;19.70;46.00;;;;;;6131105;23;20414;-87
2021/09/30 15:06:33;;;;;;;2.80;0.90;;;19.70;46.90;;;;;;6129381;23;20408;-87
2021/09/30 15:09:00;;;;;;;2.07;0.90;;;19.60;48.70;;;;;;6128786;23;20408;-89
2021/09/30 15:11:26;;;;;;;2.70;1.10;;;19.80;48.90;;;;;;6129917;23;20484;-88
2021/09/30 15:13:53;;;;;;;3.67;1.60;;;20.00;49.80;;;;;;6128659;23;20398;-89
2021/09/30 15:16:21;;;;;;;2.80;1.27;;;19.50;49.60;;;;;;6129714;23;20426;-88
2021/09/30 15:18:55;;;;;;;0.90;0.73;;;19.70;47.30;;;;;;6127571;23;20476;-88
2021/09/30 15:21:24;;;;;;;2.90;0.80;;;19.40;46.70;;;;;;6128978;23;20425;-89
2021/09/30 15:23:55;;;;;;;2.40;1.17;;;19.60;46.20;;;;;;6127972;23;20892;-89
2021/09/30 15:26:22;;;;;;;1.93;0.90;;;19.60;46.30;;;;;;6127939;23;20437;-88
2021/09/30 15:28:49;;;;;;;3.27;1.17;;;20.00;46.10;;;;;;6128550;23;20622;-89
2021/09/30 15:31:17;;;;;;;1.73;1.00;;;20.20;45.80;;;;;;6131846;23;20529;-90
2021/09/30 15:33:44;;;;;;;4.80;1.00;;;20.10;47.90;;;;;;6131234;23;20746;-89
2021/09/30 15:36:11;;;;;;;2.70;0.90;;;19.70;48.30;;;;;;6130660;23;20434;-88
2021/09/30 15:38:39;;;;;;;1.80;1.00;;;19.40;49.30;;;;;;6129392;23;20444;-89
2021/09/30 15:41:08;;;;;;;5.07;1.50;;;19.40;50.60;;;;;;6136529;23;20420;-88
2021/09/30 15:43:35;;;;;;;2.20;1.00;;;19.30;50.40;;;;;;6152474;23;20378;-87
2021/09/30 15:46:02;;;;;;;2.97;1.20;;;19.40;48.30;;;;;;6146648;23;20496;-87
2021/09/30 15:48:32;;;;;;;3.40;1.10;;;19.60;47.60;;;;;;6149123;23;20500;-87
2021/09/30 15:51:00;;;;;;;1.90;0.90;;;19.70;48.80;;;;;;6142904;23;20416;-88
2021/09/30 15:53:27;;;;;;;1.90;1.10;;;19.50;48.40;;;;;;6131000;23;20409;-88
2021/09/30 15:55:55;;;;;;;1.90;1.03;;;19.80;48.90;;;;;;6130591;23;20449;-88
2021/09/30 15:58:22;;;;;;;3.70;1.27;;;19.80;48.90;;;;;;6131409;23;20442;-90
2021/09/30 16:00:49;;;;;;;1.77;1.07;;;19.40;48.90;;;;;;6131968;23;20456;-88
2021/09/30 16:03:16;;;;;;;1.80;0.93;;;19.00;49.40;;;;;;6127621;23;20419;-89
2021/09/30 16:05:43;;;;;;;2.33;1.13;;;18.60;54.90;;;;;;6126414;23;20412;-88
2021/09/30 16:08:09;;;;;;;5.43;1.60;;;18.40;58.00;;;;;;6128498;23;20404;-89
2021/09/30 16:10:36;;;;;;;4.00;1.20;;;18.10;50.50;;;;;;6127658;23;20513;-90
2021/09/30 16:13:04;;;;;;;1.30;0.90;;;18.00;49.90;;;;;;6129098;23;20759;-88
2021/09/30 16:15:31;;;;;;;1.10;0.70;;;17.90;50.10;;;;;;6132033;23;20428;-89
2021/09/30 16:17:58;;;;;;;2.50;1.23;;;17.70;51.20;;;;;;6135370;23;20408;-93
2021/09/30 16:20:25;;;;;;;4.03;1.13;;;17.60;50.90;;;;;;6137272;23;20388;-90
2021/09/30 16:22:53;;;;;;;1.50;0.90;;;17.60;51.10;;;;;;6155114;23;20408;-90
2021/09/30 16:25:22;;;;;;;3.40;1.87;;;17.50;51.30;;;;;;6153013;23;20460;-88
2021/09/30 16:27:49;;;;;;;1.60;0.87;;;17.40;51.90;;;;;;6150470;23;20438;-92